| time (UTC) | temp C | wind direction | speed KPH | gust KPH | rain 1hr cm | rain 24hr cm | rain mn cm | humidity % | barometer mb |
| 20260510201953 | 25 | 45 | 17.7 | 19.3 | 0.00 | 0.00 | 0.00 | 53 | 1016.4 |
| 20260510201451 | 25 | 28 | 19.3 | 27.4 | 0.00 | 0.00 | 0.00 | 52 | 1016.2 |
| 20260510200947 | 25 | 35 | 14.5 | 17.7 | 0.00 | 0.00 | 0.00 | 54 | 1016.2 |
| 20260510200442 | 25 | 38 | 22.5 | 27.4 | 0.00 | 0.00 | 0.00 | 53 | 1016.2 |
| 20260510195935 | 25 | 25 | 19.3 | 25.7 | 0.00 | 0.00 | 0.00 | 53 | 1016.1 |
| 20260510195433 | 25 | 22 | 12.9 | 20.9 | 0.00 | 0.00 | 0.00 | 55 | 1016.2 |
| 20260510194928 | 25 | 36 | 8.0 | 17.7 | 0.00 | 0.00 | 0.00 | 56 | 1016.0 |
| 20260510194425 | 25 | 34 | 16.1 | 20.9 | 0.00 | 0.00 | 0.00 | 56 | 1016.1 |
| 20260510193920 | 25 | 40 | 16.1 | 17.7 | 0.00 | 0.00 | 0.00 | 55 | 1016.1 |
| 20260510193416 | 25 | 36 | 16.1 | 20.9 | 0.00 | 0.00 | 0.00 | 56 | 1016.3 |
| 20260510192912 | 25 | 30 | 22.5 | 27.4 | 0.00 | 0.00 | 0.00 | 55 | 1016.5 |
| 20260510192407 | 25 | 335 | 6.4 | 20.9 | 0.00 | 0.00 | 0.00 | 57 | 1016.2 |
| 20260510191903 | 25 | 58 | 14.5 | 30.6 | 0.00 | 0.00 | 0.00 | 60 | 1016.3 |
| 20260510191359 | 25 | 358 | 8.0 | 27.4 | 0.00 | 0.00 | 0.00 | 58 | 1016.2 |
| 20260510190856 | 25 | 46 | 11.3 | 27.4 | 0.00 | 0.00 | 0.00 | 59 | 1016.3 |
| 20260510190354 | 25 | 19 | 9.7 | 22.5 | 0.00 | 0.00 | 0.00 | 58 | 1016.4 |
| 20260510185850 | 25 | 26 | 11.3 | 17.7 | 0.00 | 0.00 | 0.00 | 60 | 1016.5 |
| 20260510185348 | 25 | 56 | 16.1 | 16.1 | 0.00 | 0.00 | 0.00 | 60 | 1016.6 |
| 20260510184845 | 25 | 347 | 16.1 | 24.1 | 0.00 | 0.00 | 0.00 | 59 | 1016.5 |
| 20260510184342 | 25 | 349 | 11.3 | 17.7 | 0.00 | 0.00 | 0.00 | 59 | 1016.3 |
| 20260510183841 | 25 | 54 | 6.4 | 19.3 | 0.00 | 0.00 | 0.00 | 59 | 1016.2 |
| 20260510183338 | 25 | 30 | 11.3 | 14.5 | 0.00 | 0.00 | 0.00 | 59 | 1016.2 |
| 20260510182833 | 25 | 55 | 20.9 | 24.1 | 0.00 | 0.00 | 0.00 | 57 | 1016.1 |
| 20260510182330 | 25 | 36 | 6.4 | 20.9 | 0.00 | 0.00 | 0.00 | 62 | 1016.2 |
| 20260510181826 | 25 | 82 | 20.9 | 20.9 | 0.00 | 0.00 | 0.00 | 59 | 1016.2 |
| 20260510181323 | 25 | 4 | 4.8 | 19.3 | 0.00 | 0.00 | 0.00 | 59 | 1016.1 |
| 20260510180814 | 25 | 81 | 9.7 | 20.9 | 0.00 | 0.00 | 0.00 | 58 | 1016.2 |
| 20260510180311 | 25 | 97 | 12.9 | 19.3 | 0.00 | 0.00 | 0.00 | 59 | 1016.1 |
| 20260510175808 | 25 | 88 | 8.0 | 17.7 | 0.00 | 0.00 | 0.00 | 58 | 1015.9 |
| 20260510175306 | 25 | 27 | 6.4 | 16.1 | 0.00 | 0.00 | 0.00 | 55 | 1016.1 |
| 20260510174800 | 25 | 79 | 11.3 | 20.9 | 0.00 | 0.00 | 0.00 | 56 | 1016.1 |
| 20260510174258 | 25 | 24 | 8.0 | 17.7 | 0.00 | 0.00 | 0.00 | 55 | 1016.3 |
| 20260510173754 | 25 | 96 | 16.1 | 17.7 | 0.00 | 0.00 | 0.00 | 57 | 1016.1 |
| 20260510173250 | 25 | 36 | 14.5 | 20.9 | 0.00 | 0.00 | 0.00 | 54 | 1016.2 |
| 20260510172745 | 25 | 63 | 9.7 | 16.1 | 0.00 | 0.00 | 0.00 | 56 | 1016.0 |
| 20260510172241 | 25 | 60 | 20.9 | 24.1 | 0.00 | 0.00 | 0.00 | 53 | 1016.1 |
| 20260510171739 | 25 | 37 | 4.8 | 12.9 | 0.00 | 0.00 | 0.00 | 56 | 1016.2 |
| 20260510171236 | 26 | 52 | 11.3 | 12.9 | 0.00 | 0.00 | 0.00 | 55 | 1016.3 |
| 20260510170733 | 26 | 293 | 6.4 | 11.3 | 0.00 | 0.00 | 0.00 | 56 | 1016.3 |
| 20260510170229 | 25 | 59 | 11.3 | 14.5 | 0.00 | 0.00 | 0.00 | 57 | 1016.3 |
| 20260510165724 | 25 | 31 | 4.8 | 11.3 | 0.00 | 0.00 | 0.00 | 56 | 1016.3 |
| 20260510165221 | 26 | 340 | 9.7 | 16.1 | 0.00 | 0.00 | 0.00 | 55 | 1016.4 |
| 20260510164718 | 25 | 12 | 4.8 | 11.3 | 0.00 | 0.00 | 0.00 | 55 | 1016.5 |
| 20260510164216 | 26 | 275 | 8.0 | 9.7 | 0.00 | 0.00 | 0.00 | 54 | 1016.3 |
| 20260510163710 | 25 | 308 | 9.7 | 12.9 | 0.00 | 0.00 | 0.00 | 55 | 1016.6 |
| 20260510163206 | 25 | 38 | 6.4 | 16.1 | 0.00 | 0.00 | 0.00 | 54 | 1016.7 |
| 20260510162706 | 25 | 358 | 4.8 | 12.9 | 0.00 | 0.00 | 0.00 | 56 | 1016.6 |
| 20260510162203 | 25 | 26 | 8.0 | 11.3 | 0.00 | 0.00 | 0.00 | 54 | 1016.4 |
| 20260510161659 | 25 | 54 | 8.0 | 11.3 | 0.00 | 0.00 | 0.00 | 54 | 1016.5 |
| 20260510161155 | 24 | 49 | 12.9 | 14.5 | 0.00 | 0.00 | 0.00 | 56 | 1016.4 |
| 20260510160653 | 25 | 28 | 9.7 | 14.5 | 0.00 | 0.00 | 0.00 | 54 | 1016.4 |
| 20260510160148 | 24 | 13 | 3.2 | 11.3 | 0.00 | 0.00 | 0.00 | 55 | 1016.5 |
| 20260510155644 | 24 | 349 | 6.4 | 9.7 | 0.00 | 0.00 | 0.00 | 57 | 1016.4 |
| 20260510155140 | 25 | 64 | 0.0 | 9.7 | 0.00 | 0.00 | 0.00 | 55 | 1016.5 |
| 20260510154636 | 25 | 311 | 3.2 | 4.8 | 0.00 | 0.00 | 0.00 | 53 | 1016.5 |
| 20260510154132 | 25 | 333 | 3.2 | 8.0 | 0.00 | 0.00 | 0.00 | 52 | 1016.3 |
| 20260510153627 | 25 | 333 | 3.2 | 8.0 | 0.00 | 0.00 | 0.00 | 52 | 1016.4 |
| 20260510153124 | 25 | 60 | 0.0 | 4.8 | 0.00 | 0.00 | 0.00 | 53 | 1016.4 |
| 20260510152620 | 25 | 19 | 4.8 | 8.0 | 0.00 | 0.00 | 0.00 | 54 | 1016.2 |
| 20260510152116 | 24 | 39 | 3.2 | 4.8 | 0.00 | 0.00 | 0.00 | 52 | 1016.3 |
| 20260510151613 | 24 | 235 | 1.6 | 6.4 | 0.00 | 0.00 | 0.00 | 52 | 1016.3 |
| 20260510151111 | 24 | 260 | 4.8 | 8.0 | 0.00 | 0.00 | 0.00 | 51 | 1016.3 |
| 20260510150606 | 23 | 302 | 4.8 | 6.4 | 0.00 | 0.00 | 0.00 | 52 | 1016.2 |
| 20260510145559 | 24 | 275 | 3.2 | 6.4 | 0.00 | 0.00 | 0.00 | 51 | 1016.1 |
| 20260510145055 | 23 | 23 | 4.8 | 6.4 | 0.00 | 0.00 | 0.00 | 54 | 1016.1 |
| 20260510144551 | 23 | 340 | 0.0 | 3.2 | 0.00 | 0.00 | 0.00 | 54 | 1015.7 |
| 20260510144048 | 23 | 176 | 1.6 | 3.2 | 0.00 | 0.00 | 0.00 | 58 | 1015.8 |
| 20260510143543 | 22 | 132 | 4.8 | 4.8 | 0.00 | 0.00 | 0.00 | 56 | 1015.6 |
| 20260510143040 | 22 | 137 | 4.8 | 6.4 | 0.00 | 0.00 | 0.00 | 55 | 1015.8 |
| 20260510142536 | 23 | 151 | 1.6 | 4.8 | 0.00 | 0.00 | 0.00 | 57 | 1015.8 |
| 20260510142033 | 22 | 178 | 0.0 | 6.4 | 0.00 | 0.00 | 0.00 | 59 | 1015.6 |
| 20260510141530 | 22 | 170 | 4.8 | 4.8 | 0.00 | 0.00 | 0.00 | 57 | 1015.6 |
| 20260510141028 | 21 | 248 | 0.0 | 6.4 | 0.00 | 0.00 | 0.00 | 63 | 1015.6 |
| 20260510140524 | 21 | 155 | 3.2 | 6.4 | 0.00 | 0.00 | 0.00 | 63 | 1015.5 |
| 20260510140023 | 21 | 108 | 1.6 | 4.8 | 0.00 | 0.00 | 0.00 | 65 | 1015.5 |
| 20260510135519 | 21 | 106 | 0.0 | 3.2 | 0.00 | 0.00 | 0.00 | 65 | 1015.8 |
| 20260510135016 | 21 | 87 | 3.2 | 4.8 | 0.00 | 0.00 | 0.00 | 64 | 1015.7 |
| 20260510134513 | 21 | 33 | 1.6 | 4.8 | 0.00 | 0.00 | 0.00 | 68 | 1015.5 |
| 20260510134010 | 20 | 174 | 3.2 | 4.8 | 0.00 | 0.00 | 0.00 | 69 | 1015.3 |
| 20260510133505 | 20 | 159 | 3.2 | 4.8 | 0.00 | 0.00 | 0.00 | 70 | 1015.6 |
| 20260510133001 | 20 | 147 | 3.2 | 6.4 | 0.00 | 0.00 | 0.00 | 72 | 1015.4 |
| 20260510132459 | 20 | 143 | 4.8 | 6.4 | 0.00 | 0.00 | 0.00 | 73 | 1015.3 |
| 20260510131955 | 20 | 176 | 4.8 | 6.4 | 0.00 | 0.00 | 0.00 | 72 | 1015.5 |
| 20260510131453 | 19 | 134 | 0.0 | 4.8 | 0.00 | 0.00 | 0.00 | 75 | 1015.4 |
| 20260510130950 | 18 | 158 | 4.8 | 6.4 | 0.00 | 0.00 | 0.00 | 77 | 1015.4 |
| 20260510130446 | 18 | 147 | 3.2 | 8.0 | 0.00 | 0.00 | 0.00 | 78 | 1015.2 |
| 20260510125944 | 18 | 171 | 4.8 | 6.4 | 0.00 | 0.00 | 0.00 | 80 | 1015.3 |
| 20260510125440 | 17 | 161 | 4.8 | 6.4 | 0.00 | 0.00 | 0.00 | 80 | 1015.3 |
| 20260510124937 | 17 | 146 | 4.8 | 4.8 | 0.00 | 0.00 | 0.00 | 82 | 1015.1 |
| 20260510124433 | 17 | 140 | 3.2 | 6.4 | 0.00 | 0.00 | 0.00 | 81 | 1015.5 |
| 20260510123930 | 17 | 179 | 1.6 | 6.4 | 0.00 | 0.00 | 0.00 | 81 | 1015.4 |
| 20260510123425 | 17 | 166 | 3.2 | 4.8 | 0.00 | 0.00 | 0.00 | 81 | 1015.3 |
| 20260510122922 | 16 | 169 | 4.8 | 6.4 | 0.00 | 0.00 | 0.00 | 84 | 1015.4 |
| 20260510122417 | 16 | 171 | 4.8 | 6.4 | 0.00 | 0.00 | 0.00 | 84 | 1015.4 |
| 20260510121913 | 16 | 169 | 3.2 | 4.8 | 0.00 | 0.00 | 0.00 | 83 | 1015.2 |
| 20260510121411 | 16 | 170 | 3.2 | 4.8 | 0.00 | 0.00 | 0.00 | 82 | 1015.6 |
| 20260510120908 | 16 | 154 | 0.0 | 3.2 | 0.00 | 0.00 | 0.00 | 82 | 1015.5 |
| 20260510120405 | 15 | 313 | 0.0 | 3.2 | 0.00 | 0.00 | 0.00 | 82 | 1015.5 |
| 20260510115901 | 15 | 315 | 3.2 | 4.8 | 0.00 | 0.00 | 0.00 | 83 | 1015.6 |
| 20260510115358 | 15 | 313 | 3.2 | 4.8 | 0.00 | 0.00 | 0.00 | 82 | 1015.4 |
| 20260510114853 | 15 | 310 | 4.8 | 6.4 | 0.00 | 0.00 | 0.00 | 83 | 1015.4 |
| 20260510114346 | 15 | 0 | 1.6 | 4.8 | 0.00 | 0.00 | 0.00 | 83 | 1015.1 |
| 20260510113845 | 15 | 37 | 0.0 | 1.6 | 0.00 | 0.00 | 0.00 | 82 | 1015.0 |
| 20260510113342 | 15 | 44 | 0.0 | 1.6 | 0.00 | 0.00 | 0.00 | 82 | 1014.6 |
| 20260510112839 | 15 | 31 | 4.8 | 4.8 | 0.00 | 0.00 | 0.00 | 83 | 1015.0 |
| 20260510112336 | 15 | 352 | 1.6 | 3.2 | 0.00 | 0.00 | 0.00 | 83 | 1014.8 |
| 20260510111832 | 15 | 308 | 3.2 | 4.8 | 0.00 | 0.00 | 0.00 | 82 | 1014.5 |
| 20260510111328 | 15 | 14 | 3.2 | 4.8 | 0.00 | 0.00 | 0.00 | 83 | 1014.6 |
| 20260510110828 | 15 | 19 | 3.2 | 4.8 | 0.00 | 0.00 | 0.00 | 84 | 1014.4 |
| 20260510110326 | 15 | 18 | 3.2 | 6.4 | 0.00 | 0.00 | 0.00 | 84 | 1014.4 |
| 20260510105822 | 14 | 17 | 4.8 | 4.8 | 0.00 | 0.00 | 0.00 | 85 | 1014.2 |
| 20260510105316 | 14 | 178 | 3.2 | 3.2 | 0.00 | 0.00 | 0.00 | 84 | 1014.1 |
| 20260510104813 | 15 | 343 | 1.6 | 4.8 | 0.00 | 0.00 | 0.00 | 83 | 1014.1 |
| 20260510104310 | 15 | 25 | 4.8 | 4.8 | 0.00 | 0.00 | 0.00 | 82 | 1014.1 |
| 20260510103806 | 15 | 20 | 4.8 | 6.4 | 0.00 | 0.00 | 0.00 | 83 | 1013.8 |
| 20260510103303 | 15 | 331 | 0.0 | 3.2 | 0.00 | 0.00 | 0.00 | 82 | 1013.8 |
| 20260510102758 | 15 | 310 | 0.0 | 4.8 | 0.00 | 0.00 | 0.00 | 83 | 1013.9 |
| 20260510102254 | 14 | 266 | 1.6 | 4.8 | 0.00 | 0.00 | 0.00 | 84 | 1013.8 |
| 20260510101751 | 14 | 246 | 0.0 | 3.2 | 0.00 | 0.00 | 0.00 | 84 | 1013.6 |
| 20260510101250 | 13 | 297 | 1.6 | 4.8 | 0.00 | 0.00 | 0.00 | 85 | 1013.7 |
| 20260510100745 | 14 | 24 | 1.6 | 3.2 | 0.00 | 0.00 | 0.00 | 84 | 1013.5 |
| 20260510100244 | 14 | 3 | 0.0 | 3.2 | 0.00 | 0.00 | 0.00 | 83 | 1013.2 |
| 20260510095738 | 15 | 181 | 4.8 | 6.4 | 0.00 | 0.00 | 0.00 | 83 | 1013.5 |
| 20260510095234 | 15 | 227 | 0.0 | 3.2 | 0.00 | 0.00 | 0.00 | 83 | 1013.4 |
| 20260510094733 | 14 | 325 | 1.6 | 3.2 | 0.00 | 0.00 | 0.00 | 83 | 1013.3 |
| 20260510094229 | 15 | 343 | 1.6 | 3.2 | 0.00 | 0.00 | 0.00 | 82 | 1013.4 |
| 20260510093724 | 15 | 6 | 3.2 | 4.8 | 0.00 | 0.00 | 0.00 | 80 | 1013.4 |
| 20260510093222 | 15 | 288 | 0.0 | 3.2 | 0.00 | 0.00 | 0.00 | 80 | 1013.3 |
| 20260510092718 | 15 | 358 | 3.2 | 4.8 | 0.00 | 0.00 | 0.00 | 79 | 1013.1 |
| 20260510092214 | 16 | 231 | 0.0 | 1.6 | 0.00 | 0.00 | 0.00 | 79 | 1013.1 |
| 20260510091710 | 16 | 282 | 1.6 | 4.8 | 0.00 | 0.00 | 0.00 | 76 | 1013.0 |
| 20260510091206 | 16 | 242 | 1.6 | 3.2 | 0.00 | 0.00 | 0.00 | 77 | 1012.8 |
| 20260510090703 | 16 | 244 | 1.6 | 3.2 | 0.00 | 0.00 | 0.00 | 77 | 1012.7 |
| 20260510090200 | 16 | 256 | 1.6 | 4.8 | 0.00 | 0.00 | 0.00 | 77 | 1012.8 |
| 20260510085655 | 16 | 243 | 4.8 | 6.4 | 0.00 | 0.00 | 0.00 | 75 | 1012.6 |
| 20260510085150 | 16 | 257 | 4.8 | 6.4 | 0.00 | 0.00 | 0.00 | 75 | 1012.7 |
| 20260510084647 | 16 | 255 | 3.2 | 4.8 | 0.00 | 0.00 | 0.00 | 77 | 1012.6 |
| 20260510084143 | 15 | 213 | 0.0 | 3.2 | 0.00 | 0.00 | 0.00 | 78 | 1012.4 |
| 20260510083640 | 15 | 322 | 0.0 | 1.6 | 0.00 | 0.00 | 0.00 | 79 | 1012.3 |
| 20260510083137 | 16 | 269 | 0.0 | 3.2 | 0.00 | 0.00 | 0.00 | 78 | 1012.4 |
| 20260510082633 | 16 | 283 | 3.2 | 3.2 | 0.00 | 0.00 | 0.00 | 77 | 1012.4 |
| 20260510082129 | 16 | 305 | 3.2 | 4.8 | 0.00 | 0.00 | 0.00 | 76 | 1012.5 |
| 20260510081624 | 16 | 293 | 1.6 | 3.2 | 0.00 | 0.00 | 0.00 | 78 | 1012.5 |
| 20260510081120 | 16 | 282 | 1.6 | 3.2 | 0.00 | 0.00 | 0.00 | 78 | 1012.4 |
| 20260510080619 | 16 | 288 | 1.6 | 3.2 | 0.00 | 0.00 | 0.00 | 76 | 1012.3 |
| 20260510080116 | 16 | 283 | 0.0 | 3.2 | 0.00 | 0.00 | 0.00 | 74 | 1012.2 |
| 20260510075613 | 16 | 307 | 0.0 | 3.2 | 0.00 | 0.00 | 0.00 | 73 | 1012.2 |
| 20260510075111 | 17 | 290 | 0.0 | 3.2 | 0.00 | 0.00 | 0.00 | 72 | 1012.2 |
| 20260510074608 | 16 | 296 | 3.2 | 4.8 | 0.00 | 0.00 | 0.00 | 73 | 1012.1 |
| 20260510074103 | 16 | 297 | 0.0 | 3.2 | 0.00 | 0.00 | 0.00 | 73 | 1012.1 |
| 20260510073559 | 16 | 295 | 1.6 | 3.2 | 0.00 | 0.00 | 0.00 | 73 | 1012.2 |
| 20260510073057 | 17 | 255 | 1.6 | 3.2 | 0.00 | 0.00 | 0.00 | 73 | 1012.1 |
| 20260510072553 | 17 | 316 | 3.2 | 4.8 | 0.00 | 0.00 | 0.00 | 72 | 1012.3 |
| 20260510072049 | 17 | 291 | 1.6 | 3.2 | 0.00 | 0.00 | 0.00 | 71 | 1012.2 |
| 20260510071545 | 17 | 224 | 1.6 | 4.8 | 0.00 | 0.00 | 0.00 | 70 | 1012.1 |
| 20260510071043 | 17 | 240 | 4.8 | 6.4 | 0.00 | 0.00 | 0.00 | 69 | 1012.3 |
| 20260510070540 | 17 | 210 | 4.8 | 4.8 | 0.00 | 0.00 | 0.00 | 71 | 1012.5 |
| 20260510070037 | 17 | 233 | 0.0 | 4.8 | 0.00 | 0.00 | 0.00 | 70 | 1012.6 |
| 20260510065533 | 18 | 286 | 1.6 | 6.4 | 0.00 | 0.00 | 0.00 | 68 | 1012.5 |
| 20260510065029 | 17 | 235 | 3.2 | 4.8 | 0.00 | 0.00 | 0.00 | 68 | 1012.7 |
| 20260510064526 | 17 | 269 | 3.2 | 4.8 | 0.00 | 0.00 | 0.00 | 68 | 1012.7 |
| 20260510064023 | 17 | 226 | 1.6 | 3.2 | 0.00 | 0.00 | 0.00 | 69 | 1012.8 |
| 20260510063519 | 17 | 297 | 0.0 | 1.6 | 0.00 | 0.00 | 0.00 | 69 | 1012.5 |
| 20260510063017 | 18 | 280 | 4.8 | 6.4 | 0.00 | 0.00 | 0.00 | 68 | 1012.7 |
| 20260510062512 | 18 | 309 | 3.2 | 4.8 | 0.00 | 0.00 | 0.00 | 67 | 1012.8 |
| 20260510062008 | 18 | 289 | 3.2 | 4.8 | 0.00 | 0.00 | 0.00 | 66 | 1012.9 |
| 20260510061505 | 18 | 275 | 4.8 | 6.4 | 0.00 | 0.00 | 0.00 | 66 | 1012.5 |
| 20260510061001 | 18 | 296 | 3.2 | 4.8 | 0.00 | 0.00 | 0.00 | 66 | 1012.4 |
| 20260510060458 | 18 | 293 | 3.2 | 4.8 | 0.00 | 0.00 | 0.00 | 64 | 1012.6 |
| 20260510055954 | 18 | 290 | 1.6 | 4.8 | 0.00 | 0.00 | 0.00 | 63 | 1012.3 |
| 20260510055450 | 19 | 265 | 3.2 | 4.8 | 0.00 | 0.00 | 0.00 | 62 | 1012.3 |
| 20260510054948 | 19 | 248 | 6.4 | 6.4 | 0.00 | 0.00 | 0.00 | 61 | 1012.4 |
| 20260510054443 | 19 | 252 | 4.8 | 6.4 | 0.00 | 0.00 | 0.00 | 61 | 1012.4 |
| 20260510053938 | 19 | 262 | 1.6 | 6.4 | 0.00 | 0.00 | 0.00 | 60 | 1012.4 |
| 20260510053434 | 19 | 252 | 3.2 | 4.8 | 0.00 | 0.00 | 0.00 | 60 | 1012.3 |
| 20260510052931 | 19 | 267 | 3.2 | 6.4 | 0.00 | 0.00 | 0.00 | 61 | 1012.2 |
| 20260510052426 | 19 | 285 | 3.2 | 4.8 | 0.00 | 0.00 | 0.00 | 61 | 1012.4 |
| 20260510051923 | 19 | 285 | 1.6 | 4.8 | 0.00 | 0.00 | 0.00 | 60 | 1012.2 |
| 20260510051419 | 19 | 276 | 3.2 | 6.4 | 0.00 | 0.00 | 0.00 | 60 | 1012.1 |
| 20260510050916 | 19 | 259 | 4.8 | 6.4 | 0.00 | 0.00 | 0.00 | 59 | 1012.2 |
| 20260510050413 | 19 | 249 | 3.2 | 4.8 | 0.00 | 0.00 | 0.00 | 59 | 1012.1 |
| 20260510045910 | 20 | 255 | 3.2 | 6.4 | 0.00 | 0.00 | 0.00 | 58 | 1012.1 |
| 20260510045407 | 20 | 265 | 1.6 | 4.8 | 0.00 | 0.00 | 0.00 | 58 | 1012.0 |
| 20260510044904 | 20 | 264 | 1.6 | 4.8 | 0.00 | 0.00 | 0.00 | 57 | 1012.3 |
| 20260510044401 | 19 | 287 | 3.2 | 4.8 | 0.00 | 0.00 | 0.00 | 58 | 1012.1 |
| 20260510043857 | 20 | 255 | 3.2 | 4.8 | 0.00 | 0.00 | 0.00 | 56 | 1012.1 |
| 20260510043353 | 20 | 249 | 3.2 | 4.8 | 0.00 | 0.00 | 0.00 | 56 | 1011.9 |
| 20260510042851 | 20 | 256 | 3.2 | 8.0 | 0.00 | 0.00 | 0.00 | 55 | 1012.1 |
| 20260510042347 | 20 | 260 | 3.2 | 3.2 | 0.00 | 0.00 | 0.00 | 55 | 1012.0 |
| 20260510041843 | 20 | 226 | 3.2 | 6.4 | 0.00 | 0.00 | 0.00 | 54 | 1012.0 |
| 20260510041341 | 20 | 256 | 1.6 | 4.8 | 0.00 | 0.00 | 0.00 | 55 | 1011.9 |
| 20260510040838 | 20 | 282 | 3.2 | 4.8 | 0.00 | 0.00 | 0.00 | 53 | 1012.0 |
| 20260510040334 | 20 | 269 | 3.2 | 9.7 | 0.00 | 0.00 | 0.00 | 52 | 1012.1 |
| 20260510035830 | 20 | 255 | 4.8 | 6.4 | 0.00 | 0.00 | 0.00 | 51 | 1011.8 |
| 20260510035326 | 20 | 275 | 1.6 | 4.8 | 0.00 | 0.00 | 0.00 | 50 | 1012.0 |
| 20260510034822 | 20 | 255 | 4.8 | 6.4 | 0.00 | 0.00 | 0.00 | 50 | 1012.1 |
| 20260510034320 | 21 | 248 | 4.8 | 6.4 | 0.00 | 0.00 | 0.00 | 49 | 1012.0 |
| 20260510033816 | 21 | 253 | 6.4 | 8.0 | 0.00 | 0.00 | 0.00 | 48 | 1011.9 |
| 20260510033313 | 21 | 261 | 3.2 | 6.4 | 0.00 | 0.00 | 0.00 | 47 | 1011.9 |
| 20260510032810 | 21 | 254 | 4.8 | 6.4 | 0.00 | 0.00 | 0.00 | 47 | 1011.9 |
| 20260510032306 | 21 | 235 | 3.2 | 6.4 | 0.00 | 0.00 | 0.00 | 46 | 1011.8 |
| 20260510031802 | 21 | 255 | 4.8 | 9.7 | 0.00 | 0.00 | 0.00 | 45 | 1011.8 |
| 20260510031257 | 21 | 242 | 4.8 | 9.7 | 0.00 | 0.00 | 0.00 | 45 | 1011.9 |
| 20260510030751 | 21 | 252 | 3.2 | 8.0 | 0.00 | 0.00 | 0.00 | 45 | 1012.0 |
| 20260510030248 | 22 | 248 | 1.6 | 9.7 | 0.00 | 0.00 | 0.00 | 45 | 1011.6 |
| 20260510025745 | 22 | 254 | 6.4 | 8.0 | 0.00 | 0.00 | 0.00 | 45 | 1012.0 |
| 20260510025243 | 21 | 247 | 4.8 | 8.0 | 0.00 | 0.00 | 0.00 | 46 | 1011.8 |
| 20260510024740 | 21 | 297 | 3.2 | 6.4 | 0.00 | 0.00 | 0.00 | 47 | 1011.5 |
| 20260510024236 | 21 | 229 | 0.0 | 4.8 | 0.00 | 0.00 | 0.00 | 49 | 1011.7 |
| 20260510023732 | 21 | 322 | 0.0 | 4.8 | 0.00 | 0.00 | 0.00 | 48 | 1011.5 |
| 20260510023230 | 21 | 22 | 0.0 | 3.2 | 0.00 | 0.00 | 0.00 | 47 | 1011.4 |
| 20260510022726 | 21 | 241 | 1.6 | 3.2 | 0.00 | 0.00 | 0.00 | 46 | 1011.4 |
| 20260510022225 | 21 | 241 | 1.6 | 4.8 | 0.00 | 0.00 | 0.00 | 45 | 1011.4 |
| 20260510021720 | 22 | 272 | 3.2 | 6.4 | 0.00 | 0.00 | 0.00 | 47 | 1011.4 |
| 20260510021219 | 22 | 284 | 3.2 | 4.8 | 0.00 | 0.00 | 0.00 | 42 | 1011.4 |
| 20260510020713 | 21 | 264 | 1.6 | 3.2 | 0.00 | 0.00 | 0.00 | 43 | 1011.2 |
| 20260510020209 | 21 | 297 | 0.0 | 4.8 | 0.00 | 0.00 | 0.00 | 44 | 1011.1 |
| 20260510015705 | 21 | 254 | 1.6 | 6.4 | 0.00 | 0.00 | 0.00 | 45 | 1011.1 |
| 20260510015201 | 22 | 168 | 3.2 | 8.0 | 0.00 | 0.00 | 0.00 | 42 | 1011.1 |
| 20260510014701 | 23 | 277 | 3.2 | 4.8 | 0.00 | 0.00 | 0.00 | 37 | 1010.9 |
| 20260510014159 | 23 | 257 | 6.4 | 6.4 | 0.00 | 0.00 | 0.00 | 35 | 1011.0 |
| 20260510013654 | 23 | 250 | 3.2 | 6.4 | 0.00 | 0.00 | 0.00 | 37 | 1010.9 |
| 20260510013150 | 22 | 250 | 3.2 | 4.8 | 0.00 | 0.00 | 0.00 | 39 | 1010.8 |
| 20260510012649 | 22 | 265 | 1.6 | 3.2 | 0.00 | 0.00 | 0.00 | 39 | 1010.9 |
| 20260510012146 | 22 | 323 | 1.6 | 3.2 | 0.00 | 0.00 | 0.00 | 39 | 1010.7 |
| 20260510011641 | 22 | 299 | 0.0 | 3.2 | 0.00 | 0.00 | 0.00 | 40 | 1010.8 |
| 20260510011137 | 23 | 267 | 3.2 | 3.2 | 0.00 | 0.00 | 0.00 | 39 | 1010.7 |
| 20260510010633 | 23 | 278 | 3.2 | 4.8 | 0.00 | 0.00 | 0.00 | 39 | 1010.5 |
| 20260510010130 | 23 | 281 | 3.2 | 3.2 | 0.00 | 0.00 | 0.00 | 39 | 1010.3 |
| 20260510005625 | 23 | 290 | 3.2 | 3.2 | 0.00 | 0.00 | 0.00 | 39 | 1010.3 |
| 20260510005123 | 23 | 276 | 1.6 | 3.2 | 0.00 | 0.00 | 0.00 | 38 | 1010.3 |
| 20260510004621 | 23 | 269 | 1.6 | 3.2 | 0.00 | 0.00 | 0.00 | 36 | 1010.2 |
| 20260510004119 | 25 | 306 | 0.0 | 1.6 | 0.00 | 0.00 | 0.00 | 34 | 1010.2 |
| 20260510003616 | 25 | 297 | 0.0 | 1.6 | 0.00 | 0.00 | 0.00 | 34 | 1010.0 |
| 20260510003112 | 25 | 255 | 0.0 | 1.6 | 0.00 | 0.00 | 0.00 | 32 | 1010.1 |
| 20260510002606 | 26 | 284 | 0.0 | 1.6 | 0.00 | 0.00 | 0.00 | 31 | 1010.0 |
| 20260510002103 | 26 | 265 | 0.0 | 1.6 | 0.00 | 0.00 | 0.00 | 31 | 1010.1 |
| 20260510001601 | 26 | 255 | 0.0 | 0.0 | 0.00 | 0.00 | 0.00 | 31 | 1009.9 |
| 20260510001100 | 26 | 237 | 0.0 | 3.2 | 0.00 | 0.00 | 0.00 | 30 | 1010.0 |
| 20260510000559 | 26 | 257 | 0.0 | 3.2 | 0.00 | 0.00 | 0.00 | 30 | 1009.8 |
| 20260510000056 | 27 | 297 | 0.0 | 1.6 | 0.00 | 0.00 | 0.00 | 31 | 1009.9 |
| 20260509235553 | 27 | 331 | 0.0 | 3.2 | 0.00 | 0.00 | 0.00 | 34 | 1009.7 |
| 20260509235050 | 27 | 293 | 3.2 | 3.2 | 0.00 | 0.00 | 0.00 | 37 | 1009.6 |
| 20260509234546 | 27 | 154 | 0.0 | 3.2 | 0.00 | 0.00 | 0.00 | 27 | 1009.8 |
| 20260509234044 | 27 | 275 | 0.0 | 1.6 | 0.00 | 0.00 | 0.00 | 31 | 1009.7 |
| 20260509233541 | 27 | 25 | 0.0 | 3.2 | 0.00 | 0.00 | 0.00 | 26 | 1009.7 |
| 20260509233038 | 27 | 122 | 4.8 | 8.0 | 0.00 | 0.00 | 0.00 | 26 | 1009.6 |
| 20260509232535 | 27 | 195 | 3.2 | 6.4 | 0.00 | 0.00 | 0.00 | 26 | 1009.7 |
| 20260509232032 | 28 | 185 | 3.2 | 4.8 | 0.00 | 0.00 | 0.00 | 26 | 1009.4 |
| 20260509231528 | 28 | 224 | 3.2 | 6.4 | 0.00 | 0.00 | 0.00 | 28 | 1009.7 |
| 20260509231026 | 28 | 246 | 4.8 | 6.4 | 0.00 | 0.00 | 0.00 | 28 | 1009.6 |
| 20260509230522 | 28 | 269 | 0.0 | 8.0 | 0.00 | 0.00 | 0.00 | 29 | 1009.5 |
| 20260509230019 | 28 | 229 | 0.0 | 3.2 | 0.00 | 0.00 | 0.00 | 31 | 1009.6 |
| 20260509225515 | 28 | 324 | 1.6 | 4.8 | 0.00 | 0.00 | 0.00 | 26 | 1009.6 |
| 20260509225010 | 28 | 346 | 3.2 | 6.4 | 0.00 | 0.00 | 0.00 | 26 | 1009.6 |
| 20260509224507 | 27 | 327 | 0.0 | 4.8 | 0.00 | 0.00 | 0.00 | 27 | 1009.4 |
| 20260509224004 | 27 | 201 | 3.2 | 8.0 | 0.00 | 0.00 | 0.00 | 27 | 1009.5 |
| 20260509223500 | 28 | 196 | 3.2 | 4.8 | 0.00 | 0.00 | 0.00 | 28 | 1009.7 |
| 20260509222958 | 27 | 195 | 1.6 | 4.8 | 0.00 | 0.00 | 0.00 | 27 | 1009.7 |
| 20260509222453 | 27 | 110 | 3.2 | 6.4 | 0.00 | 0.00 | 0.00 | 29 | 1009.4 |
| 20260509221949 | 27 | 316 | 1.6 | 4.8 | 0.00 | 0.00 | 0.00 | 28 | 1009.6 |
| 20260509221445 | 27 | 79 | 3.2 | 8.0 | 0.00 | 0.00 | 0.00 | 30 | 1009.6 |
| 20260509220941 | 27 | 53 | 4.8 | 6.4 | 0.00 | 0.00 | 0.00 | 29 | 1009.8 |
| 20260509220438 | 27 | 149 | 3.2 | 4.8 | 0.00 | 0.00 | 0.00 | 29 | 1009.7 |
| 20260509215934 | 27 | 135 | 0.0 | 3.2 | 0.00 | 0.00 | 0.00 | 28 | 1009.7 |
| 20260509215429 | 27 | 87 | 1.6 | 3.2 | 0.00 | 0.00 | 0.00 | 29 | 1009.5 |
| 20260509214927 | 27 | 55 | 6.4 | 8.0 | 0.00 | 0.00 | 0.00 | 30 | 1009.7 |
| 20260509214424 | 27 | 124 | 6.4 | 9.7 | 0.00 | 0.00 | 0.00 | 27 | 1009.6 |
| 20260509213921 | 28 | 155 | 4.8 | 8.0 | 0.00 | 0.00 | 0.00 | 27 | 1009.7 |
| 20260509213416 | 27 | 247 | 4.8 | 9.7 | 0.00 | 0.00 | 0.00 | 28 | 1009.7 |
| 20260509212914 | 27 | 243 | 4.8 | 9.7 | 0.00 | 0.00 | 0.00 | 26 | 1009.6 |
| 20260509212412 | 27 | 235 | 0.0 | 4.8 | 0.00 | 0.00 | 0.00 | 29 | 1009.7 |
| 20260509211908 | 27 | 189 | 8.0 | 12.9 | 0.00 | 0.00 | 0.00 | 30 | 1009.7 |
| 20260509211403 | 28 | 345 | 8.0 | 11.3 | 0.00 | 0.00 | 0.00 | 29 | 1009.6 |
| 20260509210900 | 28 | 288 | 6.4 | 9.7 | 0.00 | 0.00 | 0.00 | 30 | 1009.8 |
| 20260509210357 | 28 | 280 | 6.4 | 12.9 | 0.00 | 0.00 | 0.00 | 30 | 1009.8 |
| 20260509205852 | 28 | 294 | 4.8 | 11.3 | 0.00 | 0.00 | 0.00 | 31 | 1009.7 |
| 20260509205347 | 27 | 166 | 3.2 | 4.8 | 0.00 | 0.00 | 0.00 | 33 | 1009.6 |
| 20260509204844 | 28 | 163 | 4.8 | 8.0 | 0.00 | 0.00 | 0.00 | 31 | 1009.7 |
| 20260509204340 | 28 | 302 | 6.4 | 9.7 | 0.00 | 0.00 | 0.00 | 32 | 1010.0 |
| 20260509203836 | 28 | 307 | 9.7 | 14.5 | 0.00 | 0.00 | 0.00 | 35 | 1009.7 |
| 20260509203333 | 28 | 320 | 6.4 | 11.3 | 0.00 | 0.00 | 0.00 | 33 | 1009.8 |
| 20260509202829 | 27 | 293 | 4.8 | 8.0 | 0.00 | 0.00 | 0.00 | 31 | 1009.8 |